createdAt,value
2018-10-12T00:00:53.480Z,1009.36
2018-10-12T00:01:53.499Z,1009.36
2018-10-12T00:02:53.520Z,1009.39
2018-10-12T00:03:53.541Z,1009.39
2018-10-12T00:04:53.563Z,1009.39
2018-10-12T00:05:53.583Z,1009.41
2018-10-12T00:06:53.604Z,1009.44
2018-10-12T00:07:53.627Z,1009.44
2018-10-12T00:08:53.647Z,1009.45
2018-10-12T00:09:53.669Z,1009.45
2018-10-12T00:10:53.691Z,1009.41
2018-10-12T00:11:53.712Z,1009.41
2018-10-12T00:12:53.733Z,1009.45
2018-10-12T00:13:53.755Z,1009.45
2018-10-12T00:14:53.776Z,1009.39
2018-10-12T00:15:53.798Z,1009.40
2018-10-12T00:16:53.819Z,1009.42
2018-10-12T00:17:53.843Z,1009.40
2018-10-12T00:18:53.864Z,1009.44
2018-10-12T00:19:53.883Z,1009.44
2018-10-12T00:20:53.904Z,1009.44
2018-10-12T00:21:53.926Z,1009.43
2018-10-12T00:22:53.948Z,1009.44
2018-10-12T00:23:53.969Z,1009.45
2018-10-12T00:24:53.990Z,1009.43
2018-10-12T00:25:54.011Z,1009.46
2018-10-12T00:26:54.038Z,1009.42
2018-10-12T00:27:54.053Z,1009.42
2018-10-12T00:28:54.077Z,1009.44
2018-10-12T00:29:54.096Z,1009.44
2018-10-12T00:30:54.117Z,1009.44
2018-10-12T00:31:54.139Z,1009.46
2018-10-12T00:32:54.160Z,1009.46
2018-10-12T00:33:54.180Z,1009.47
2018-10-12T00:34:54.202Z,1009.47
2018-10-12T00:35:54.224Z,1009.47
2018-10-12T00:36:54.246Z,1009.50
2018-10-12T00:37:54.266Z,1009.47
2018-10-12T00:38:54.288Z,1009.53
2018-10-12T00:39:54.309Z,1009.53
2018-10-12T00:40:54.331Z,1009.53
2018-10-12T00:41:54.356Z,1009.50
2018-10-12T00:42:54.377Z,1009.54
2018-10-12T00:43:54.396Z,1009.49
2018-10-12T00:44:54.415Z,1009.52
2018-10-12T00:45:54.436Z,1009.50
2018-10-12T00:46:54.457Z,1009.49
2018-10-12T00:47:54.479Z,1009.50
2018-10-12T00:48:54.500Z,1009.49
2018-10-12T00:49:54.594Z,1009.46
2018-10-12T00:50:54.542Z,1009.48
2018-10-12T00:51:54.566Z,1009.51
2018-10-12T00:52:54.585Z,1009.49
2018-10-12T00:53:54.605Z,1009.46
2018-10-12T00:54:54.626Z,1009.42
2018-10-12T00:55:54.648Z,1009.42
2018-10-12T00:56:54.669Z,1009.42
2018-10-12T00:57:54.690Z,1009.44
2018-10-12T00:58:54.711Z,1009.44
2018-10-12T00:59:54.735Z,1009.45
2018-10-12T01:00:54.754Z,1009.44
2018-10-12T01:01:54.774Z,1009.44
2018-10-12T01:02:54.797Z,1009.47
2018-10-12T01:03:54.817Z,1009.48
2018-10-12T01:04:54.839Z,1009.53
2018-10-12T01:05:54.859Z,1009.49
2018-10-12T01:06:54.882Z,1009.55
2018-10-12T01:07:54.901Z,1009.49
2018-10-12T01:08:54.923Z,1009.51
2018-10-12T01:09:54.943Z,1009.53
2018-10-12T01:10:54.969Z,1009.54
2018-10-12T01:11:54.986Z,1009.53
2018-10-12T01:12:55.008Z,1009.54
2018-10-12T01:13:55.028Z,1009.48
2018-10-12T01:14:55.049Z,1009.43
2018-10-12T01:15:55.071Z,1009.45
2018-10-12T01:16:55.093Z,1009.41
2018-10-12T01:17:55.113Z,1009.34
2018-10-12T01:18:55.133Z,1009.31
2018-10-12T01:19:55.156Z,1009.26
2018-10-12T01:20:55.175Z,1009.21
2018-10-12T01:21:55.197Z,1009.24
2018-10-12T01:22:55.217Z,1009.26
2018-10-12T01:23:55.239Z,1009.31
2018-10-12T01:24:55.260Z,1009.29
2018-10-12T01:25:55.281Z,1009.33
2018-10-12T01:26:55.302Z,1009.33
2018-10-12T01:27:55.323Z,1009.34
2018-10-12T01:28:55.344Z,1009.38
2018-10-12T01:29:55.370Z,1009.40
2018-10-12T01:30:55.386Z,1009.41
2018-10-12T01:31:55.410Z,1009.37
2018-10-12T01:32:55.428Z,1009.40
2018-10-12T01:33:55.448Z,1009.33
2018-10-12T01:34:55.470Z,1009.33
2018-10-12T01:35:55.493Z,1009.35
2018-10-12T01:36:55.513Z,1009.37
2018-10-12T01:37:55.533Z,1009.36
2018-10-12T01:38:55.555Z,1009.36
2018-10-12T01:39:55.575Z,1009.38
2018-10-12T01:40:55.596Z,1009.37
2018-10-12T01:41:55.617Z,1009.40
2018-10-12T01:42:55.643Z,1009.44
2018-10-12T01:43:55.660Z,1009.43
2018-10-12T01:44:55.681Z,1009.45
2018-10-12T01:45:55.700Z,1009.45
2018-10-12T01:46:55.722Z,1009.55
2018-10-12T01:47:55.743Z,1009.60
2018-10-12T01:48:55.765Z,1009.60
2018-10-12T01:49:55.787Z,1009.58
2018-10-12T01:50:55.806Z,1009.59
2018-10-12T01:51:55.828Z,1009.60
2018-10-12T01:52:55.848Z,1009.57
2018-10-12T01:53:55.869Z,1009.64
2018-10-12T01:54:55.891Z,1009.60
2018-10-12T01:55:55.912Z,1009.57
2018-10-12T01:56:55.933Z,1009.60
2018-10-12T01:57:55.953Z,1009.57
2018-10-12T01:58:55.974Z,1009.59
2018-10-12T01:59:55.995Z,1009.58
2018-10-12T02:00:56.017Z,1009.58
2018-10-12T02:01:56.037Z,1009.52
2018-10-12T02:02:56.058Z,1009.57
2018-10-12T02:03:56.079Z,1009.55
2018-10-12T02:04:56.100Z,1009.62
2018-10-12T02:05:56.120Z,1009.61
2018-10-12T02:06:56.142Z,1009.61
2018-10-12T02:07:56.162Z,1009.62
2018-10-12T02:08:56.184Z,1009.64
2018-10-12T02:09:56.251Z,1009.66
2018-10-12T02:10:56.226Z,1009.62
2018-10-12T02:11:56.246Z,1009.61
2018-10-12T02:12:56.267Z,1009.64
2018-10-12T02:13:56.287Z,1009.62
2018-10-12T02:14:56.308Z,1009.64
2018-10-12T02:15:56.329Z,1009.63
2018-10-12T02:16:56.350Z,1009.61
2018-10-12T02:17:56.370Z,1009.65
2018-10-12T02:18:56.391Z,1009.64
2018-10-12T02:19:56.469Z,1009.63
2018-10-12T02:20:56.436Z,1009.63
2018-10-12T02:21:56.453Z,1009.68
2018-10-12T02:22:56.474Z,1009.63
2018-10-12T02:23:56.496Z,1009.62
2018-10-12T02:24:56.517Z,1009.64
2018-10-12T02:25:56.536Z,1009.64
2018-10-12T02:26:56.557Z,1009.62
2018-10-12T02:27:56.582Z,1009.63
2018-10-12T02:28:56.600Z,1009.58
2018-10-12T02:29:56.623Z,1009.59
2018-10-12T02:30:56.641Z,1009.59
2018-10-12T02:31:56.661Z,1009.58
2018-10-12T02:32:56.683Z,1009.60
2018-10-12T02:33:56.703Z,1009.61
2018-10-12T02:34:56.723Z,1009.61
2018-10-12T02:35:56.746Z,1009.60
2018-10-12T02:36:56.767Z,1009.60
2018-10-12T02:37:56.790Z,1009.57
2018-10-12T02:38:56.806Z,1009.59
2018-10-12T02:39:56.828Z,1009.60
2018-10-12T02:40:56.848Z,1009.57
2018-10-12T02:41:56.868Z,1009.64
2018-10-12T02:42:56.888Z,1009.70
2018-10-12T02:43:56.910Z,1009.62
2018-10-12T02:44:56.931Z,1009.65
2018-10-12T02:45:56.952Z,1009.69
2018-10-12T02:46:56.976Z,1009.65
2018-10-12T02:47:56.994Z,1009.64
2018-10-12T02:48:57.017Z,1009.64
2018-10-12T02:49:57.034Z,1009.65
2018-10-12T02:50:57.059Z,1009.70
2018-10-12T02:51:57.076Z,1009.67
2018-10-12T02:52:57.097Z,1009.69
2018-10-12T02:53:57.117Z,1009.71
2018-10-12T02:54:57.137Z,1009.70
2018-10-12T02:55:57.161Z,1009.70
2018-10-12T02:56:57.180Z,1009.78
2018-10-12T02:57:57.200Z,1009.82
2018-10-12T02:58:57.220Z,1009.75
2018-10-12T02:59:57.244Z,1009.79
2018-10-12T03:00:57.262Z,1009.83
2018-10-12T03:01:57.281Z,1009.88
2018-10-12T03:02:57.303Z,1009.93
2018-10-12T03:03:57.324Z,1009.97
2018-10-12T03:04:57.344Z,1009.94
2018-10-12T03:05:57.363Z,1009.94
2018-10-12T03:06:57.385Z,1009.97
2018-10-12T03:07:57.406Z,1009.93
2018-10-12T03:08:57.427Z,1009.93
2018-10-12T03:09:57.447Z,1009.90
2018-10-12T03:10:57.468Z,1009.98
2018-10-12T03:11:57.488Z,1009.98
2018-10-12T03:12:57.509Z,1010.02
2018-10-12T03:13:57.529Z,1010.03
2018-10-12T03:14:57.550Z,1010.01
2018-10-12T03:15:57.571Z,1010.08
2018-10-12T03:16:57.592Z,1010.06
2018-10-12T03:17:57.612Z,1010.01
2018-10-12T03:18:57.632Z,1010.07
2018-10-12T03:19:57.653Z,1010.05
2018-10-12T03:20:57.673Z,1010.08
2018-10-12T03:21:57.694Z,1010.12
2018-10-12T03:22:57.718Z,1010.12
2018-10-12T03:23:57.735Z,1010.09
2018-10-12T03:24:57.756Z,1010.09
2018-10-12T03:25:57.776Z,1010.10
2018-10-12T03:26:57.799Z,1010.17
2018-10-12T03:27:57.817Z,1010.16
2018-10-12T03:28:57.838Z,1010.19
2018-10-12T03:29:57.858Z,1010.19
2018-10-12T03:30:57.880Z,1010.19
2018-10-12T03:31:57.901Z,1010.26
2018-10-12T03:32:57.921Z,1010.27
2018-10-12T03:33:57.940Z,1010.27
2018-10-12T03:34:57.963Z,1010.30
2018-10-12T03:35:57.982Z,1010.31
2018-10-12T03:36:58.025Z,1010.36
2018-10-12T03:37:58.028Z,1010.37
2018-10-12T03:38:58.043Z,1010.37
2018-10-12T03:39:58.067Z,1010.44
2018-10-12T03:40:58.087Z,1010.42
2018-10-12T03:41:58.126Z,1010.41
2018-10-12T03:42:58.125Z,1010.44
2018-10-12T03:43:58.147Z,1010.41
2018-10-12T03:44:58.167Z,1010.43
2018-10-12T03:45:58.187Z,1010.48
2018-10-12T03:46:58.208Z,1010.47
2018-10-12T03:47:58.228Z,1010.45
2018-10-12T03:48:58.250Z,1010.49
2018-10-12T03:49:58.277Z,1010.48
2018-10-12T03:50:58.295Z,1010.52
2018-10-12T03:51:58.351Z,1010.51
2018-10-12T03:52:58.332Z,1010.54
2018-10-12T03:53:58.352Z,1010.56
2018-10-12T03:54:58.373Z,1010.60
2018-10-12T03:55:58.393Z,1010.59
2018-10-12T03:56:58.414Z,1010.57
2018-10-12T03:57:58.434Z,1010.56
2018-10-12T03:58:58.456Z,1010.58
2018-10-12T03:59:58.477Z,1010.57
2018-10-12T04:00:58.496Z,1010.55
2018-10-12T04:01:58.516Z,1010.60
2018-10-12T04:02:58.536Z,1010.60
2018-10-12T04:03:58.557Z,1010.63
2018-10-12T04:04:58.579Z,1010.64
2018-10-12T04:05:58.602Z,1010.63
2018-10-12T04:06:58.618Z,1010.65
2018-10-12T04:07:58.639Z,1010.66
2018-10-12T04:08:58.660Z,1010.66
2018-10-12T04:09:58.684Z,1010.68
2018-10-12T04:10:58.701Z,1010.67
2018-10-12T04:11:58.722Z,1010.70
2018-10-12T04:12:58.742Z,1010.71
2018-10-12T04:13:58.762Z,1010.72
2018-10-12T04:14:58.783Z,1010.83
2018-10-12T04:15:58.803Z,1010.85
2018-10-12T04:16:58.824Z,1010.87
2018-10-12T04:17:58.846Z,1010.81
2018-10-12T04:18:58.865Z,1010.80
2018-10-12T04:19:58.886Z,1010.86
2018-10-12T04:20:58.907Z,1010.86
2018-10-12T04:21:58.927Z,1010.90
2018-10-12T04:22:58.947Z,1010.95
2018-10-12T04:23:58.968Z,1010.98
2018-10-12T04:24:58.988Z,1011.03
2018-10-12T04:25:59.011Z,1011.02
2018-10-12T04:26:59.032Z,1011.06
2018-10-12T04:27:59.050Z,1011.09
2018-10-12T04:28:59.121Z,1011.04
2018-10-12T04:29:59.090Z,1011.12
2018-10-12T04:30:59.111Z,1011.15
2018-10-12T04:31:59.133Z,1011.13
2018-10-12T04:32:59.154Z,1011.20
2018-10-12T04:33:59.172Z,1011.17
2018-10-12T04:34:59.194Z,1011.14
2018-10-12T04:35:59.215Z,1011.12
2018-10-12T04:36:59.235Z,1011.10
2018-10-12T04:37:59.255Z,1011.05
2018-10-12T04:38:59.275Z,1011.12
2018-10-12T04:39:59.297Z,1011.04
2018-10-12T04:40:59.317Z,1011.04
2018-10-12T04:41:59.336Z,1011.00
2018-10-12T04:42:59.357Z,1011.05
2018-10-12T04:43:59.380Z,1011.07
2018-10-12T04:44:59.400Z,1011.09
2018-10-12T04:45:59.421Z,1011.09
2018-10-12T04:46:59.440Z,1011.11
2018-10-12T04:47:59.460Z,1011.20
2018-10-12T04:48:59.480Z,1011.22
2018-10-12T04:49:59.500Z,1011.28
2018-10-12T04:50:59.521Z,1011.31
2018-10-12T04:51:59.542Z,1011.24
2018-10-12T04:52:59.563Z,1011.23
2018-10-12T04:53:59.584Z,1011.24
2018-10-12T04:54:59.603Z,1011.19
2018-10-12T04:55:59.625Z,1011.22
2018-10-12T04:56:59.644Z,1011.25
2018-10-12T04:57:59.664Z,1011.33
2018-10-12T04:58:59.686Z,1011.33
2018-10-12T04:59:59.706Z,1011.30
2018-10-12T05:00:59.749Z,1011.29
2018-10-12T05:01:59.746Z,1011.27
2018-10-12T05:02:59.767Z,1011.30
2018-10-12T05:03:59.787Z,1011.30
2018-10-12T05:04:59.808Z,1011.35
2018-10-12T05:05:59.828Z,1011.37
2018-10-12T05:06:59.848Z,1011.41
2018-10-12T05:07:59.869Z,1011.43
2018-10-12T05:08:59.890Z,1011.40
2018-10-12T05:09:59.909Z,1011.41
2018-10-12T05:10:59.931Z,1011.45
2018-10-12T05:11:59.955Z,1011.46
2018-10-12T05:12:59.972Z,1011.44
2018-10-12T05:13:59.995Z,1011.44
2018-10-12T05:15:00.013Z,1011.43
2018-10-12T05:16:00.033Z,1011.46
2018-10-12T05:17:00.056Z,1011.43
2018-10-12T05:18:00.073Z,1011.45
2018-10-12T05:19:00.094Z,1011.43
2018-10-12T05:20:00.115Z,1011.36
2018-10-12T05:21:00.138Z,1011.33
2018-10-12T05:22:00.194Z,1011.39
2018-10-12T05:23:00.182Z,1011.35
2018-10-12T05:24:00.197Z,1011.37
2018-10-12T05:25:00.218Z,1011.41
2018-10-12T05:26:00.237Z,1011.45
2018-10-12T05:27:00.258Z,1011.45
2018-10-12T05:28:00.280Z,1011.53
2018-10-12T05:29:00.305Z,1011.57
2018-10-12T05:30:00.347Z,1011.60
2018-10-12T05:31:00.340Z,1011.61
2018-10-12T05:32:00.361Z,1011.66
2018-10-12T05:33:00.383Z,1011.68
2018-10-12T05:34:00.401Z,1011.69
2018-10-12T05:35:00.423Z,1011.69
2018-10-12T05:36:00.503Z,1011.72
2018-10-12T05:37:00.468Z,1011.70
2018-10-12T05:38:00.484Z,1011.74
2018-10-12T05:39:00.506Z,1011.80
2018-10-12T05:40:00.528Z,1011.79
2018-10-12T05:41:00.549Z,1011.83
2018-10-12T05:42:00.566Z,1011.84
2018-10-12T05:43:00.637Z,1011.82
2018-10-12T05:44:00.608Z,1011.84
2018-10-12T05:45:00.630Z,1011.84
2018-10-12T05:46:00.656Z,1011.88
2018-10-12T05:47:00.670Z,1011.90
2018-10-12T05:48:00.691Z,1011.92
2018-10-12T05:49:00.757Z,1011.93
2018-10-12T05:50:00.732Z,1011.95
2018-10-12T05:51:00.753Z,1011.97
2018-10-12T05:52:00.773Z,1011.96
2018-10-12T05:53:00.795Z,1012.01
2018-10-12T05:54:00.815Z,1012.01
2018-10-12T05:55:00.836Z,1012.08
2018-10-12T05:56:00.857Z,1012.03
2018-10-12T05:57:00.877Z,1012.05
2018-10-12T05:58:00.898Z,1012.06
2018-10-12T05:59:00.918Z,1012.09
2018-10-12T06:00:00.942Z,1012.09
2018-10-12T06:01:00.960Z,1012.12
2018-10-12T06:02:00.980Z,1012.16
2018-10-12T06:03:01.002Z,1012.17
2018-10-12T06:04:01.023Z,1012.16
2018-10-12T06:05:01.043Z,1012.10
2018-10-12T06:06:01.063Z,1012.22
2018-10-12T06:07:01.084Z,1012.21
2018-10-12T06:08:01.106Z,1012.21
2018-10-12T06:09:01.126Z,1012.23
2018-10-12T06:10:01.160Z,1012.34
2018-10-12T06:11:01.168Z,1012.30
2018-10-12T06:12:01.189Z,1012.33
2018-10-12T06:13:01.209Z,1012.33
2018-10-12T06:14:01.230Z,1012.36
2018-10-12T06:15:01.251Z,1012.36
2018-10-12T06:16:01.338Z,1012.44
2018-10-12T06:17:01.294Z,1012.47
2018-10-12T06:18:01.316Z,1012.50
2018-10-12T06:19:01.335Z,1012.53
2018-10-12T06:20:01.355Z,1012.56
2018-10-12T06:21:01.378Z,1012.58
2018-10-12T06:22:01.398Z,1012.58
2018-10-12T06:23:01.418Z,1012.61
2018-10-12T06:24:01.439Z,1012.58
2018-10-12T06:25:01.461Z,1012.60
2018-10-12T06:26:01.481Z,1012.61
2018-10-12T06:27:01.513Z,1012.63
2018-10-12T06:28:01.537Z,1012.62
2018-10-12T06:29:01.568Z,1012.61
2018-10-12T06:30:01.566Z,1012.66
2018-10-12T06:31:01.587Z,1012.67
2018-10-12T06:32:01.608Z,1012.71
2018-10-12T06:33:01.719Z,1012.73
2018-10-12T06:34:01.649Z,1012.77
2018-10-12T06:35:01.671Z,1012.77
2018-10-12T06:36:01.695Z,1012.78
2018-10-12T06:37:01.714Z,1012.83
2018-10-12T06:38:01.733Z,1012.87
2018-10-12T06:39:01.754Z,1012.86
2018-10-12T06:40:01.827Z,1012.83
2018-10-12T06:41:01.889Z,1012.86
2018-10-12T06:42:01.818Z,1012.90
2018-10-12T06:43:01.842Z,1012.94
2018-10-12T06:44:01.866Z,1013.02
2018-10-12T06:45:01.881Z,1013.03
2018-10-12T06:46:01.902Z,1013.02
2018-10-12T06:47:01.927Z,1013.01
2018-10-12T06:48:01.945Z,1012.99
2018-10-12T06:49:01.972Z,1013.00
2018-10-12T06:50:01.988Z,1012.98
2018-10-12T06:51:02.008Z,1013.00
2018-10-12T06:52:02.029Z,1013.02
2018-10-12T06:53:02.050Z,1013.07
2018-10-12T06:54:02.140Z,1013.03
2018-10-12T06:55:02.095Z,1013.07
2018-10-12T06:56:02.114Z,1013.06
2018-10-12T06:57:02.135Z,1013.04
2018-10-12T06:58:02.156Z,1013.07
2018-10-12T06:59:02.177Z,1013.04
2018-10-12T07:00:02.310Z,1013.09
2018-10-12T07:01:02.222Z,1013.14
2018-10-12T07:02:02.253Z,1013.14
2018-10-12T07:03:02.262Z,1013.16
2018-10-12T07:04:02.284Z,1013.19
2018-10-12T07:05:02.305Z,1013.24
2018-10-12T07:06:02.326Z,1013.21
2018-10-12T07:07:02.349Z,1013.18
2018-10-12T07:08:02.370Z,1013.25
2018-10-12T07:09:02.641Z,1013.24
2018-10-12T07:10:02.411Z,1013.26
2018-10-12T07:11:02.433Z,1013.28
2018-10-12T07:12:02.454Z,1013.32
2018-10-12T07:13:02.477Z,1013.35
2018-10-12T07:14:02.498Z,1013.35
2018-10-12T07:15:02.518Z,1013.35
2018-10-12T07:16:02.590Z,1013.33
2018-10-12T07:17:02.664Z,1013.37
2018-10-12T07:18:02.602Z,1013.40
2018-10-12T07:19:02.638Z,1013.38
2018-10-12T07:20:02.630Z,1013.42
2018-10-12T07:21:02.653Z,1013.42
2018-10-12T07:22:02.727Z,1013.46
2018-10-12T07:23:02.698Z,1013.48
2018-10-12T07:24:02.713Z,1013.47
2018-10-12T07:25:02.738Z,1013.46
2018-10-12T07:26:02.940Z,1013.48
2018-10-12T07:27:02.807Z,1013.49
2018-10-12T07:28:02.802Z,1013.49
2018-10-12T07:29:02.822Z,1013.52
2018-10-12T07:30:02.846Z,1013.53
2018-10-12T07:31:02.871Z,1013.57
2018-10-12T07:32:02.935Z,1013.59
2018-10-12T07:33:02.909Z,1013.59
2018-10-12T07:34:02.930Z,1013.63
2018-10-12T07:35:02.993Z,1013.69
2018-10-12T07:36:02.975Z,1013.68
2018-10-12T07:37:03.005Z,1013.67
2018-10-12T07:38:03.118Z,1013.68
2018-10-12T07:39:03.040Z,1013.69
2018-10-12T07:40:03.065Z,1013.72
2018-10-12T07:41:03.085Z,1013.68
2018-10-12T07:42:03.105Z,1013.73
2018-10-12T07:43:03.128Z,1013.74
2018-10-12T07:44:03.153Z,1013.78
2018-10-12T07:45:03.172Z,1013.80
2018-10-12T07:46:03.195Z,1013.80
2018-10-12T07:47:03.216Z,1013.80
2018-10-12T07:48:03.295Z,1013.81
2018-10-12T07:49:03.262Z,1013.84
2018-10-12T07:50:03.282Z,1013.85
2018-10-12T07:51:03.307Z,1013.90
2018-10-12T07:52:03.328Z,1013.85
2018-10-12T07:53:03.420Z,1013.85
2018-10-12T07:54:03.372Z,1013.90
2018-10-12T07:55:03.394Z,1013.86
2018-10-12T07:56:03.418Z,1013.85
2018-10-12T07:57:03.438Z,1013.83
2018-10-12T07:58:03.460Z,1013.83
2018-10-12T07:59:03.484Z,1013.88
2018-10-12T08:00:03.583Z,1013.84
2018-10-12T08:01:03.528Z,1013.91
2018-10-12T08:02:03.549Z,1013.88
2018-10-12T08:03:03.571Z,1013.92
2018-10-12T08:04:03.597Z,1013.92
2018-10-12T08:05:03.617Z,1013.94
2018-10-12T08:06:03.663Z,1013.94
2018-10-12T08:07:03.661Z,1013.96
2018-10-12T08:08:03.685Z,1013.94
2018-10-12T08:09:03.706Z,1014.02
2018-10-12T08:10:03.728Z,1014.04
2018-10-12T08:11:03.751Z,1014.05
2018-10-12T08:12:03.773Z,1014.08
2018-10-12T08:13:03.801Z,1014.10
2018-10-12T08:14:03.848Z,1014.12
2018-10-12T08:15:03.843Z,1014.16
2018-10-12T08:16:03.863Z,1014.17
2018-10-12T08:17:03.886Z,1014.18
2018-10-12T08:18:03.908Z,1014.20
2018-10-12T08:19:03.930Z,1014.21
2018-10-12T08:20:03.953Z,1014.22
2018-10-12T08:21:03.977Z,1014.22
2018-10-12T08:22:04.000Z,1014.22
2018-10-12T08:23:04.021Z,1014.26
2018-10-12T08:24:04.049Z,1014.26
2018-10-12T08:25:04.067Z,1014.24
2018-10-12T08:26:04.093Z,1014.26
2018-10-12T08:27:04.147Z,1014.27
2018-10-12T08:28:04.134Z,1014.25
2018-10-12T08:29:04.157Z,1014.25
2018-10-12T08:30:04.179Z,1014.24
2018-10-12T08:31:04.202Z,1014.30
2018-10-12T08:32:04.227Z,1014.31
2018-10-12T08:33:04.307Z,1014.33
2018-10-12T08:34:04.270Z,1014.34
2018-10-12T08:35:04.293Z,1014.32
2018-10-12T08:36:04.318Z,1014.29
2018-10-12T08:37:04.339Z,1014.31
2018-10-12T08:38:04.361Z,1014.35
2018-10-12T08:39:04.387Z,1014.25
2018-10-12T08:40:04.408Z,1014.28
2018-10-12T08:41:04.981Z,1014.29
2018-10-12T08:42:04.453Z,1014.29
2018-10-12T08:43:04.478Z,1014.33
2018-10-12T08:44:04.701Z,1014.33
2018-10-12T08:45:04.523Z,1014.35
2018-10-12T08:46:04.546Z,1014.38
2018-10-12T08:47:04.568Z,1014.39
2018-10-12T08:48:04.591Z,1014.36
2018-10-12T08:49:04.614Z,1014.37
2018-10-12T08:50:04.641Z,1014.40
2018-10-12T08:51:04.662Z,1014.41
2018-10-12T08:52:04.684Z,1014.40
2018-10-12T08:53:04.707Z,1014.46
2018-10-12T08:54:04.730Z,1014.49
2018-10-12T08:55:04.753Z,1014.44
2018-10-12T08:56:04.777Z,1014.47
2018-10-12T08:57:04.802Z,1014.48
2018-10-12T08:58:04.822Z,1014.46
2018-10-12T08:59:04.847Z,1014.45
2018-10-12T09:00:04.870Z,1014.48
2018-10-12T09:01:04.895Z,1014.51
2018-10-12T09:02:04.916Z,1014.57
2018-10-12T09:03:04.981Z,1014.64
2018-10-12T09:04:04.968Z,1014.58
2018-10-12T09:05:04.990Z,1014.62
2018-10-12T09:06:05.011Z,1014.63
2018-10-12T09:07:05.036Z,1014.68
2018-10-12T09:08:05.058Z,1014.67
2018-10-12T09:09:05.082Z,1014.68
2018-10-12T09:10:05.107Z,1014.66
2018-10-12T09:11:05.129Z,1014.68
2018-10-12T09:12:05.153Z,1014.68
2018-10-12T09:13:05.177Z,1014.70
2018-10-12T09:14:05.199Z,1014.72
2018-10-12T09:15:05.224Z,1014.69
2018-10-12T09:16:05.299Z,1014.70
2018-10-12T09:17:05.272Z,1014.70
2018-10-12T09:18:05.295Z,1014.68
2018-10-12T09:19:05.319Z,1014.71
2018-10-12T09:20:05.377Z,1014.70
2018-10-12T09:21:05.367Z,1014.71
2018-10-12T09:22:05.390Z,1014.79
2018-10-12T09:23:05.415Z,1014.80
2018-10-12T09:24:05.442Z,1014.78
2018-10-12T09:25:05.463Z,1014.77
2018-10-12T09:26:05.486Z,1014.77
2018-10-12T09:27:05.515Z,1014.78
2018-10-12T09:28:05.543Z,1014.77
2018-10-12T09:29:05.559Z,1014.81
2018-10-12T09:30:05.631Z,1014.78
2018-10-12T09:31:05.609Z,1014.82
2018-10-12T09:32:05.634Z,1014.79
2018-10-12T09:33:05.656Z,1014.78
2018-10-12T09:34:05.680Z,1014.81
2018-10-12T09:35:05.704Z,1014.78
2018-10-12T09:36:05.728Z,1014.79
2018-10-12T09:37:05.791Z,1014.75
2018-10-12T09:38:05.776Z,1014.75
2018-10-12T09:39:05.801Z,1014.77
2018-10-12T09:40:05.829Z,1014.81
2018-10-12T09:41:05.850Z,1014.85
2018-10-12T09:42:05.873Z,1014.84
2018-10-12T09:43:05.952Z,1014.82
2018-10-12T09:44:05.924Z,1014.86
2018-10-12T09:45:05.947Z,1014.87
2018-10-12T09:46:05.971Z,1014.85
2018-10-12T09:47:05.996Z,1014.85
2018-10-12T09:48:06.022Z,1014.86
2018-10-12T09:49:06.046Z,1014.89
2018-10-12T09:50:06.069Z,1014.88
2018-10-12T09:51:06.095Z,1014.88
2018-10-12T09:52:06.118Z,1014.87
2018-10-12T09:53:06.149Z,1014.93
2018-10-12T09:54:06.168Z,1014.88
2018-10-12T09:55:06.191Z,1014.87
2018-10-12T09:56:06.216Z,1014.87
2018-10-12T09:57:06.241Z,1014.89
2018-10-12T09:58:06.265Z,1014.89
2018-10-12T09:59:06.289Z,1014.84
2018-10-12T10:00:06.315Z,1014.90
2018-10-12T10:01:06.340Z,1014.85
2018-10-12T10:02:06.425Z,1014.83
2018-10-12T10:03:06.389Z,1014.83
2018-10-12T10:04:06.416Z,1014.79
2018-10-12T10:05:06.438Z,1014.83
2018-10-12T10:06:06.461Z,1014.74
2018-10-12T10:07:06.486Z,1014.70
2018-10-12T10:08:06.947Z,1014.73
2018-10-12T10:09:06.663Z,1014.69
2018-10-12T10:10:06.561Z,1014.75
2018-10-12T10:11:06.587Z,1014.73
2018-10-12T10:12:06.611Z,1014.72
2018-10-12T10:13:06.637Z,1014.71
2018-10-12T10:14:06.863Z,1014.72
2018-10-12T10:15:07.038Z,1014.69
2018-10-12T10:16:06.713Z,1014.71
2018-10-12T10:17:06.736Z,1014.73
2018-10-12T10:18:06.759Z,1014.66
2018-10-12T10:19:06.813Z,1014.66
2018-10-12T10:20:06.809Z,1014.73
2018-10-12T10:21:06.835Z,1014.73
2018-10-12T10:22:06.858Z,1014.70
2018-10-12T10:23:06.884Z,1014.71
2018-10-12T10:24:06.910Z,1014.70
2018-10-12T10:25:06.992Z,1014.72
2018-10-12T10:26:06.959Z,1014.75
2018-10-12T10:27:06.984Z,1014.79
2018-10-12T10:28:07.014Z,1014.80
2018-10-12T10:29:07.038Z,1014.78
2018-10-12T10:30:07.062Z,1014.74
2018-10-12T10:31:07.084Z,1014.79
2018-10-12T10:32:07.170Z,1014.76
2018-10-12T10:33:07.135Z,1014.74
2018-10-12T10:34:07.159Z,1014.71
2018-10-12T10:35:07.185Z,1014.73
2018-10-12T10:36:07.210Z,1014.71
2018-10-12T10:37:07.237Z,1014.72
2018-10-12T10:38:07.260Z,1014.71
2018-10-12T10:39:07.336Z,1014.75
2018-10-12T10:40:07.311Z,1014.64
2018-10-12T10:41:07.336Z,1014.58
2018-10-12T10:42:07.361Z,1014.61
2018-10-12T10:43:07.387Z,1014.64
2018-10-12T10:44:07.411Z,1014.57
2018-10-12T10:45:07.437Z,1014.60
2018-10-12T10:46:07.499Z,1014.58
2018-10-12T10:47:07.948Z,1014.54
2018-10-12T10:48:07.517Z,1014.53
2018-10-12T10:49:07.638Z,1014.54
2018-10-12T10:50:07.563Z,1014.49
2018-10-12T10:51:07.588Z,1014.47
2018-10-12T10:52:07.615Z,1014.37
2018-10-12T10:53:07.639Z,1014.40
2018-10-12T10:54:07.663Z,1014.44
2018-10-12T10:55:07.689Z,1014.49
2018-10-12T10:56:07.718Z,1014.47
2018-10-12T10:57:07.741Z,1014.50
2018-10-12T10:58:07.769Z,1014.50
2018-10-12T10:59:07.791Z,1014.51
2018-10-12T11:00:07.817Z,1014.52
2018-10-12T11:01:07.847Z,1014.43
2018-10-12T11:02:07.867Z,1014.42
2018-10-12T11:03:07.898Z,1014.40
2018-10-12T11:04:07.922Z,1014.43
2018-10-12T11:05:07.945Z,1014.46
2018-10-12T11:06:07.987Z,1014.44
2018-10-12T11:07:07.995Z,1014.47
2018-10-12T11:08:08.020Z,1014.45
2018-10-12T11:09:08.046Z,1014.48
2018-10-12T11:10:08.071Z,1014.45
2018-10-12T11:11:08.099Z,1014.41
2018-10-12T11:12:08.131Z,1014.42
2018-10-12T11:13:08.150Z,1014.47
2018-10-12T11:14:08.173Z,1014.44
2018-10-12T11:15:08.198Z,1014.49
2018-10-12T11:16:08.255Z,1014.44
2018-10-12T11:17:08.250Z,1014.47
2018-10-12T11:18:08.274Z,1014.42
2018-10-12T11:19:08.300Z,1014.45
2018-10-12T11:20:08.326Z,1014.45
2018-10-12T11:21:08.351Z,1014.43
2018-10-12T11:22:08.377Z,1014.42
2018-10-12T11:23:08.403Z,1014.39
2018-10-12T11:24:08.428Z,1014.45
2018-10-12T11:25:08.454Z,1014.40
2018-10-12T11:26:08.511Z,1014.29
2018-10-12T11:27:08.506Z,1014.33
2018-10-12T11:28:08.530Z,1014.36
2018-10-12T11:29:08.557Z,1014.38
2018-10-12T11:30:08.584Z,1014.40
2018-10-12T11:31:08.611Z,1014.47
2018-10-12T11:32:08.633Z,1014.37
2018-10-12T11:33:08.671Z,1014.42
2018-10-12T11:34:08.685Z,1014.45
2018-10-12T11:35:08.710Z,1014.43
2018-10-12T11:36:08.737Z,1014.48
2018-10-12T11:37:08.762Z,1014.46
2018-10-12T11:38:08.787Z,1014.41
2018-10-12T11:39:08.813Z,1014.37
2018-10-12T11:40:08.839Z,1014.42
2018-10-12T11:41:08.865Z,1014.40
2018-10-12T11:42:08.890Z,1014.34
2018-10-12T11:43:08.917Z,1014.35
2018-10-12T11:44:08.943Z,1014.33
2018-10-12T11:45:09.007Z,1014.41
2018-10-12T11:46:08.994Z,1014.43
2018-10-12T11:47:09.020Z,1014.38
2018-10-12T11:48:09.046Z,1014.29
2018-10-12T11:49:09.273Z,1014.31
2018-10-12T11:50:09.100Z,1014.31
2018-10-12T11:51:09.578Z,1014.40
2018-10-12T11:52:09.182Z,1014.41
2018-10-12T11:53:09.180Z,1014.33
2018-10-12T11:54:09.203Z,1014.39
2018-10-12T11:55:09.227Z,1014.34
2018-10-12T11:56:09.253Z,1014.35
2018-10-12T11:57:09.279Z,1014.38
2018-10-12T11:58:09.454Z,1014.37
2018-10-12T11:59:09.333Z,1014.37
2018-10-12T12:00:09.358Z,1014.36
2018-10-12T12:01:09.502Z,1014.37
2018-10-12T12:02:09.427Z,1014.38
2018-10-12T12:03:09.434Z,1014.37
2018-10-12T12:04:10.822Z,1014.37
2018-10-12T12:05:09.486Z,1014.37
2018-10-12T12:06:09.515Z,1014.32